Impacts TAF Board INFO
FOR SITUATIONAL AWARENESS. NOT TO BE USED FOR FLIGHT PLANNING PURPOSES.
IDs:

KTOI - Troy Muni, AL, US

Issued at 1120 UTC 22 Nov 2017
Updated at 1440 UTC 22 Nov 2017
Potential Impact None Slight Moderate High
Time1353Z 22/15Z 22/16Z 22/17Z 22/18Z 22/19Z 22/20Z 22/21Z 22/22Z 22/23Z 23/00Z 23/01Z 23/02Z 23/03Z>>
Type OBS PRVL PRVL PRVL PRVL PRVL PRVL PRVL PRVL PRVL PRVL PRVL PRVL PRVL
VIS 10 >6 >6 >6 >6 >6 >6 >6 >6 >6 >6 >6 >6 >6
CIG -- 250 250 250 250 250 250 250 250 250 250 250 250 250
Cover CLR BKN BKN BKN BKN BKN BKN BKN BKN BKN BKN BKN BKN BKN
FltCat VFR VFR VFR VFR VFR VFR VFR VFR VFR VFR VFR VFR VFR VFR
WX -- -- -- -- -- -- -- -- -- -- -- -- -- --
WDir 10 350 350 350 350 350 350 350 350 350 350 350 350 350
WSpd 6 10 10 10 10 10 10 10 10 10 10 5 5 5
WGst -- -- -- -- -- -- -- -- -- -- -- -- -- --

Raw TAF
KTOI 221120Z 2212/2312 35005KT P6SM BKN040
  FM221400 35010KT P6SM BKN250
  FM230100 35005KT P6SM BKN250


Raw METAR
KTOI 221353Z AUTO 01006KT 10SM CLR 12/08 A3007 RMK AO2 SLP182 T01170078
KTOI 221253Z AUTO 00000KT 10SM CLR 10/08 A3007 RMK AO2 SLP180 T01000078
KTOI 221153Z AUTO 31003KT 10SM CLR 09/08 A3004 RMK AO2 SLP171 T00940078 10139 20094 53008

METAR Board
Radar Display
Forecast Discussion

FOR SITUATIONAL AWARENESS. NOT TO BE USED FOR FLIGHT PLANNING PURPOSES.